»·PEaware :: UAL241 KRNO-KSFO

UAL241 :: KRNO-KSFO

FLIGHT INFORMATION

Flight Status: Arrived
Operator:
United Airlines
More flights by this operator :: More flights under this callsign
Pilot: Ryan H. (12491)
Aircraft: BOEING 737-800
(B738)
More flights by this aircraft type
Origin: KRNO Reno/Tahoe Intl
United States
Destination: KSFO San Francisco Intl
United States
More flights between these airports :: More routes between these airports
Route: +ZEFFR6 MRLET LEGGS BDEGA2
File this flight plan on PilotEdge
Remarks:
Altitude:
(Current/Filed)
30,000ft
Speed:
(Current/Filed)
450kts
Departed: 13-May-18 04:43 PM
Arrived: 13-May-18 05:31 PM
Distance/Time
Traveled:
167nm/0:48
Distance/Time
To Go:
Arrived

Flight Plot

Page will automatically refresh every two minutes.


Map Options




Map Legend


Flown Route
Filed Route
Departure Airport
Arrival Airport
Navaid (VOR, NDB)
Fix

Horizontal Profiles

Position Reports

Time Latitude Longitude Heading Altitude Ground
Speed
13-May-18 16:31 39.505994 -119.773393 180 4424ft 0kts
13-May-18 16:32 39.505994 -119.773393 180 4424ft 0kts
13-May-18 16:33 39.505994 -119.773393 180 4424ft 0kts
13-May-18 16:34 39.505994 -119.773393 180 4424ft 0kts
13-May-18 16:35 39.505994 -119.773393 180 4424ft 0kts
13-May-18 16:36 39.505994 -119.773393 180 4424ft 0kts
13-May-18 16:37 39.505994 -119.773393 180 4424ft 0kts
13-May-18 16:38 39.506437 -119.773537 149 4424ft 0kts
13-May-18 16:39 39.506462 -119.772642 88 4424ft 0kts
13-May-18 16:40 39.508802 -119.771588 358 4424ft 27kts
13-May-18 16:41 39.513557 -119.770321 90 4424ft 8kts
13-May-18 16:42 39.513554 -119.770127 91 4424ft 0kts
13-May-18 16:43 39.507675 -119.769214 179 4424ft 103kts
13-May-18 16:44 39.457944 -119.767525 182 6662ft 206kts
13-May-18 16:45 39.395740 -119.769619 181 9410ft 251kts
13-May-18 16:46 39.316451 -119.770317 187 11968ft 317kts
13-May-18 16:47 39.221834 -119.797795 193 14210ft 387kts
13-May-18 16:48 39.142379 -119.869630 261 16163ft 420kts
13-May-18 16:49 39.158945 -120.014519 281 19639ft 415kts
13-May-18 16:50 39.183910 -120.161633 281 22129ft 424kts
13-May-18 16:51 39.209101 -120.312551 281 24073ft 437kts
13-May-18 16:52 39.234774 -120.467811 281 25692ft 449kts
13-May-18 16:53 39.260798 -120.626082 281 27352ft 454kts
13-May-18 16:54 39.286610 -120.784586 280 28997ft 453kts
13-May-18 16:55 39.312504 -120.944892 280 29961ft 458kts
13-May-18 16:56 39.319413 -121.105955 249 30004ft 457kts
13-May-18 16:57 39.243926 -121.237131 230 30003ft 458kts
13-May-18 16:58 39.161441 -121.361738 231 30003ft 457kts
13-May-18 16:59 39.078956 -121.486773 231 30002ft 455kts
13-May-18 17:00 38.997450 -121.610081 231 30003ft 452kts
13-May-18 17:01 38.915834 -121.733325 231 30003ft 452kts
13-May-18 17:02 38.834482 -121.856010 231 30003ft 452kts
13-May-18 17:03 38.752836 -121.978933 231 30003ft 452kts
13-May-18 17:04 38.671443 -122.101297 231 30003ft 452kts
13-May-18 17:05 38.590035 -122.223497 231 30003ft 452kts
13-May-18 17:06 38.508396 -122.345859 231 29998ft 443kts
13-May-18 17:07 38.432307 -122.459784 231 28359ft 414kts
13-May-18 17:08 38.358281 -122.569495 231 26434ft 401kts
13-May-18 17:09 38.286741 -122.675451 231 24542ft 389kts
13-May-18 17:10 38.200721 -122.753784 193 22661ft 390kts
13-May-18 17:11 38.093514 -122.729749 169 20882ft 387kts
13-May-18 17:12 37.990564 -122.699670 170 18193ft 372kts
13-May-18 17:13 37.892891 -122.666031 148 15928ft 366kts
13-May-18 17:14 37.817737 -122.586600 141 14554ft 327kts
13-May-18 17:15 37.749704 -122.514926 140 12353ft 308kts
13-May-18 17:16 37.685022 -122.447948 140 10969ft 294kts
13-May-18 17:17 37.625455 -122.386003 140 10936ft 274kts
13-May-18 17:18 37.558781 -122.340666 154 10411ft 270kts
13-May-18 17:19 37.492271 -122.300621 154 8892ft 251kts
13-May-18 17:20 37.434881 -122.266085 154 7707ft 212kts
13-May-18 17:21 37.383732 -122.235300 154 6308ft 201kts
13-May-18 17:22 37.335227 -122.206088 154 5955ft 199kts
13-May-18 17:23 37.339828 -122.147555 28 5950ft 232kts
13-May-18 17:24 37.398705 -122.113150 24 5933ft 232kts
13-May-18 17:25 37.457028 -122.129523 326 5187ft 230kts
13-May-18 17:26 37.506731 -122.171726 320 4480ft 195kts
13-May-18 17:27 37.546276 -122.214525 315 3158ft 172kts
13-May-18 17:28 37.570275 -122.259729 298 1911ft 148kts
13-May-18 17:29 37.589052 -122.304143 297 1089ft 145kts
13-May-18 17:30 37.608331 -122.350380 297 210ft 148kts
13-May-18 17:31 37.621421 -122.381319 297 22ft 33kts
13-May-18 17:32 37.619331 -122.381253 118 22ft 10kts
13-May-18 17:33 37.618258 -122.380014 133 22ft 15kts
13-May-18 17:34 37.616049 -122.380574 335 22ft 3kts
13-May-18 17:35 37.616443 -122.380788 340 22ft 0kts

Navigation Log

Ident Type
1. KRNO Airport
2. ZEFFR Fix
3. ZEFFR Fix
4. EPOSE Fix
5. MRLET Fix
6. LEGGS Fix
7. GEEHH Fix
8. BGGLO Fix
9. LOZIT Fix
10. BDEGA Fix
11. CORKK Fix
12. BRIXX Fix
13. KSFO Airport